Date,TemperatureHighF,TemperatureAvgF,TemperatureLowF,DewpointHighF,DewpointAvgF,DewpointLowF,HumidityHigh,HumidityAvg,HumidityLow,PressureMaxIn,PressureMinIn,WindSpeedMaxMPH,WindSpeedAvgMPH,GustSpeedMaxMPH,PrecipitationSumIn
2013-1-1,46.8,43.3,39.4,44.6,35.9,13.6,94,78,32,29.83,29.68,5,1,7,0.30
2013-1-2,43.7,38.2,35.2,42.1,34.0,29.9,94,85,76,29.83,29.66,13,1,13,0.01
2013-1-3,38.1,33.5,26.8,32.2,27.5,18.8,86,78,68,30.00,29.79,5,1,6,0.00
2013-1-4,39.4,30.1,23.9,22.5,17.8,14.3,74,61,41,30.05,29.95,9,2,11,0.00
2013-1-5,49.3,34.9,21.4,26.7,18.6,13.2,72,53,27,30.09,29.88,8,1,8,0.00
2013-1-6,47.5,38.3,34.3,36.1,29.5,23.8,85,71,60,29.94,29.75,8,2,11,0.00
2013-1-7,53.8,38.3,26.6,28.8,21.9,16.2,78,55,24,30.08,29.92,8,2,8,0.00
2013-1-8,56.8,40.5,26.8,38.4,26.3,16.4,73,58,35,30.09,29.98,11,2,12,0.00
2013-1-9,56.7,47.2,37.6,50.0,42.4,33.1,91,83,72,30.18,30.04,5,1,7,0.00
2013-1-10,65.5,54.2,45.3,52.8,46.7,43.1,93,77,54,30.18,29.98,17,3,19,0.00
2013-1-11,62.6,56.3,51.4,57.1,51.9,46.3,93,85,71,29.99,29.84,13,2,14,0.00
2013-1-12,72.1,62.8,56.8,58.5,52.9,43.7,94,72,47,29.92,29.79,13,4,13,0.05
2013-1-13,70.2,62.7,58.5,54.2,48.9,45.2,85,61,48,29.85,29.76,19,6,21,0.13
2013-1-14,58.3,53.2,44.1,55.0,50.8,41.7,93,91,86,29.91,29.77,3,0,5,2.27
2013-1-15,54.1,49.7,44.1,52.5,47.9,41.9,95,94,92,29.86,29.68,7,1,8,1.69
2013-1-16,54.0,51.8,50.5,52.3,49.8,48.4,95,93,85,29.76,29.65,6,1,8,0.33
2013-1-17,50.9,40.5,31.3,49.0,37.8,27.6,93,90,85,29.95,29.56,5,0,11,1.29
2013-1-18,40.6,32.6,26.1,29.0,24.5,21.1,86,73,50,30.16,29.95,4,0,4,0.40
2013-1-19,52.5,37.5,25.2,32.2,19.9,8.5,83,55,19,30.12,29.88,8,2,11,0.01
2013-1-20,51.8,39.0,28.6,31.6,24.0,16.2,72,56,35,29.89,29.76,7,1,9,0.00
2013-1-21,50.9,35.6,26.2,30.9,17.3,-0.6,80,51,22,29.84,29.68,21,3,24,0.00
2013-1-22,30.9,24.7,18.5,7.1,-1.8,-8.6,47,32,21,29.92,29.75,13,4,13,0.00
2013-1-23,43.3,31.1,22.3,19.5,10.0,-6.7,62,41,26,29.98,29.76,6,2,8,0.00
2013-1-24,41.5,32.8,23.5,24.9,9.3,-6.9,63,39,20,30.02,29.75,14,4,20,0.00
2013-1-25,41.9,32.2,24.1,37.4,19.6,-1.5,86,63,31,30.03,29.72,17,5,21,0.25
2013-1-26,41.2,33.0,29.7,30.9,26.6,20.9,84,77,55,30.01,29.82,5,1,6,0.00
2013-1-27,50.2,36.3,24.4,30.2,24.0,17.7,79,62,40,30.11,30.01,9,2,9,0.02
2013-1-28,62.1,49.1,37.0,45.0,36.7,27.6,80,63,44,30.07,29.92,16,2,17,0.01
2013-1-29,63.1,57.9,45.5,52.8,47.4,39.0,81,68,59,29.96,29.69,15,4,16,0.04
2013-1-30,65.5,56.5,41.9,55.9,49.9,34.4,89,79,69,29.69,29.24,24,6,28,2.33
2013-1-31,41.7,34.9,28.4,34.9,16.6,7.3,77,48,29,29.68,29.31,20,7,25,0.00
2013-2-1,38.3,26.2,18.5,23.7,5.8,-5.3,69,42,25,30.00,29.64,22,5,24,0.00
2013-2-2,38.7,27.8,17.8,27.3,14.8,-0.7,78,58,40,30.00,29.72,14,2,17,0.00
2013-2-3,41.0,34.3,30.0,28.1,21.0,15.3,76,59,42,29.74,29.61,16,4,19,0.07
2013-2-4,50.9,39.2,22.6,26.7,19.1,13.0,67,46,24,29.81,29.68,8,2,11,0.00
2013-2-5,55.4,43.0,35.2,34.6,24.1,15.4,62,48,28,29.73,29.61,11,2,11,0.00
2013-2-6,56.1,44.1,34.5,31.2,22.5,12.5,69,46,19,29.90,29.72,6,2,7,0.00
2013-2-7,46.4,41.2,34.5,37.9,29.3,19.6,85,64,42,29.93,29.70,8,2,9,0.39
2013-2-8,45.5,40.4,32.4,42.0,34.1,24.0,91,79,54,29.90,29.63,13,2,16,0.01
2013-2-9,53.8,39.1,25.9,26.7,16.5,4.3,74,46,16,30.00,29.89,7,2,11,0.00
2013-2-10,55.6,43.2,33.6,45.5,23.7,10.2,89,51,17,30.01,29.79,14,5,17,0.47
2013-2-11,55.6,50.3,42.1,50.3,39.8,25.0,91,70,40,29.82,29.74,10,2,11,0.06
2013-2-12,51.8,42.9,35.8,34.1,23.9,13.0,84,50,22,29.87,29.61,6,2,8,0.19
2013-2-13,53.4,41.3,32.4,45.5,33.2,25.0,89,74,49,29.63,29.38,18,4,23,0.07
2013-2-14,33.1,32.8,32.4,26.0,25.6,25.0,75,74,72,29.69,29.64,4,1,5,0.00
2013-2-15,52.5,39.8,31.8,33.7,28.2,21.3,76,65,30,29.74,29.65,14,3,14,0.01
2013-2-16,32.2,28.2,19.8,23.8,15.8,0.5,73,60,37,29.73,29.59,15,2,15,0.01
2013-2-17,34.2,25.1,18.0,4.4,-0.6,-4.9,45,33,22,29.92,29.71,17,5,17,0.00
2013-2-18,55.4,36.1,19.2,22.4,13.7,3.4,61,41,22,30.02,29.80,13,4,17,0.00
2013-2-19,50.9,39.7,31.8,37.3,21.3,3.7,88,52,25,29.81,29.63,22,6,27,0.19
2013-2-20,45.0,33.7,25.2,6.2,2.1,-3.1,35,26,18,29.85,29.77,11,3,14,0.00
2013-2-21,61.2,40.5,23.2,32.5,13.2,0.2,80,37,16,29.92,29.73,8,2,9,0.38
2013-2-22,44.2,40.9,37.9,37.3,35.9,32.5,86,82,76,29.90,29.72,7,1,7,0.28
2013-2-23,55.9,46.9,39.9,49.0,42.4,36.3,94,84,73,29.75,29.56,4,1,4,0.13
2013-2-24,53.6,42.8,33.1,38.4,25.5,14.2,88,56,22,29.76,29.61,10,2,10,0.00
2013-2-25,49.1,37.8,29.3,29.6,23.5,18.5,74,58,35,29.79,29.66,12,3,12,0.00
2013-2-26,53.2,42.0,36.9,42.9,33.5,28.2,85,72,50,29.66,29.26,18,6,24,0.54
2013-2-27,55.4,42.8,33.8,31.2,25.7,17.8,76,53,28,29.53,29.40,14,4,17,0.01
2013-2-28,41.0,34.0,29.7,26.7,20.4,16.6,67,57,47,29.62,29.48,11,4,13,0.00
2013-3-1,36.7,32.0,28.8,23.7,21.9,19.4,73,66,58,29.66,29.60,6,2,7,0.00
2013-3-2,39.7,30.7,24.3,24.8,20.4,13.5,75,66,46,29.67,29.55,8,3,11,0.01
2013-3-3,30.0,24.3,19.4,14.8,10.3,6.7,69,56,41,29.74,29.64,11,3,12,0.05
2013-3-4,51.3,35.7,21.0,22.4,12.2,7.3,58,40,20,29.84,29.72,5,2,8,0.00
2013-3-5,48.7,41.7,32.9,45.9,33.5,19.9,91,74,50,29.78,29.39,12,3,18,0.67
2013-3-6,32.9,28.4,24.3,21.2,18.2,14.2,73,65,52,29.87,29.46,12,4,18,0.00
2013-3-7,39.7,30.9,26.4,27.0,21.2,18.2,74,67,55,29.97,29.87,7,2,9,0.00
2013-3-8,52.5,36.6,24.4,23.2,15.9,7.3,75,48,18,30.01,29.94,8,2,9,0.00
2013-3-9,67.5,45.9,26.2,28.2,20.1,14.6,69,41,14,30.01,29.87,8,2,11,0.00
2013-3-10,69.6,54.4,43.3,31.6,26.2,17.2,53,36,15,29.95,29.80,15,6,16,0.00
2013-3-11,56.8,52.3,49.3,49.7,44.5,31.8,97,76,48,29.83,29.55,24,7,27,0.63
2013-3-12,49.6,43.0,36.3,48.7,36.2,26.4,98,78,51,29.77,29.54,9,2,12,0.07
2013-3-13,44.2,36.4,27.7,26.6,17.8,8.1,68,48,23,29.90,29.73,17,4,19,0.00
2013-3-14,44.6,31.8,21.9,13.3,8.7,-2.9,61,41,18,30.00,29.87,9,3,12,0.00
2013-3-15,67.6,49.6,30.6,39.4,27.1,10.1,66,44,13,29.92,29.67,12,4,12,0.00
2013-3-16,74.8,62.7,53.8,44.6,39.8,36.7,54,44,27,29.67,29.54,17,6,21,0.00
2013-3-17,73.9,62.4,55.4,45.4,40.4,33.1,63,46,23,29.70,29.60,11,3,14,0.00
2013-3-18,57.0,49.9,44.1,51.3,44.8,40.8,98,83,57,29.71,29.54,14,5,15,0.79
2013-3-19,56.5,45.4,36.0,43.5,26.5,7.3,99,56,19,29.79,29.58,14,3,16,0.01
2013-3-20,37.2,33.5,30.4,26.1,7.4,-0.5,81,36,22,29.79,29.60,4,1,5,0.00
2013-3-21,34.7,27.4,18.9,25.1,11.4,6.2,83,52,33,29.65,29.54,10,3,11,0.05
2013-3-22,47.7,34.1,20.8,24.1,13.4,5.6,61,44,21,29.74,29.65,4,1,5,0.01
2013-3-23,55.9,43.6,35.1,43.5,34.9,22.1,93,72,54,29.73,29.56,8,1,8,0.07
2013-3-24,54.1,45.5,41.9,46.9,41.4,32.8,99,86,69,29.61,29.21,16,5,17,1.00
2013-3-25,42.1,32.9,28.2,33.2,20.4,15.2,73,60,44,29.64,29.27,14,5,17,0.00
2013-3-26,37.4,30.5,26.1,25.6,20.8,16.5,73,67,53,29.92,29.63,10,3,12,0.02
2013-3-27,43.9,33.0,27.3,22.9,20.0,16.1,76,60,40,29.98,29.90,12,4,12,0.01
2013-3-28,51.6,34.9,26.8,23.1,17.7,11.6,67,52,21,30.01,29.95,10,3,11,0.00
2013-3-31,61.5,54.9,50.2,52.5,49.1,45.7,99,82,57,29.67,29.59,14,2,14,0.46
2013-4-1,63.0,51.1,41.0,49.4,39.1,29.8,99,68,32,29.74,29.63,16,4,16,0.01
2013-4-2,55.9,44.7,34.2,30.3,19.5,10.9,66,40,18,29.87,29.74,9,3,9,0.00
2013-4-3,60.4,46.3,33.8,22.1,16.0,10.3,52,31,18,29.97,29.85,8,2,8,0.00
2013-4-4,45.7,38.7,34.2,36.9,29.0,13.0,94,72,27,29.92,29.66,13,3,13,0.81
2013-4-5,54.5,44.5,37.6,44.0,36.5,31.2,98,77,42,29.81,29.66,7,2,8,0.00
2013-4-6,70.2,50.8,32.2,40.3,30.9,23.4,91,53,20,29.95,29.79,15,4,16,0.00
2013-4-7,73.2,58.9,46.8,40.4,34.8,23.5,60,42,16,29.90,29.79,11,3,14,0.00
2013-4-8,77.9,62.6,50.5,51.8,43.8,39.6,77,53,27,29.87,29.78,14,3,14,0.00
2013-4-9,83.7,67.5,51.6,55.1,48.6,40.2,86,55,23,29.94,29.79,8,2,11,0.00
2013-4-10,87.6,70.6,54.9,56.8,47.9,32.8,83,50,15,29.87,29.67,11,3,12,0.00
2013-4-11,81.0,68.0,61.2,60.0,52.0,44.4,94,59,28,29.71,29.46,20,5,20,0.57
2013-4-12,67.8,59.4,48.6,59.0,48.1,35.4,95,68,43,29.66,29.39,15,3,17,0.39
2013-4-13,68.4,55.3,42.6,39.7,31.8,16.1,77,46,14,29.80,29.65,6,2,9,0.00
2013-4-14,59.2,55.3,51.4,46.8,42.7,36.1,84,64,42,29.75,29.70,19,9,20,0.00
2013-4-15,77.9,61.3,51.1,54.9,51.6,46.8,92,73,42,29.90,29.71,11,4,12,0.00
2013-4-16,83.1,66.8,53.4,58.3,53.9,49.3,91,67,32,29.99,29.87,10,3,14,0.00
2013-4-17,77.2,64.6,57.6,62.5,56.8,53.8,93,76,54,29.99,29.84,9,1,9,0.01
2013-4-18,75.4,66.1,58.5,59.7,53.5,47.5,91,66,38,29.85,29.67,20,6,24,0.00
2013-4-19,66.6,59.6,41.4,60.4,52.2,33.7,93,77,62,29.74,29.50,17,5,23,0.99
2013-4-20,55.6,45.1,34.2,33.2,25.9,17.9,74,50,24,30.02,29.74,6,2,8,0.00
2013-4-21,63.3,48.0,33.6,37.6,29.7,23.8,87,53,23,30.12,30.00,22,4,22,0.00
2013-4-22,67.8,53.7,41.5,40.9,34.8,29.4,80,52,28,30.09,29.88,12,4,14,0.00
2013-4-23,74.1,56.9,37.9,43.1,35.8,25.1,82,48,26,29.98,29.79,13,3,14,0.00
2013-4-24,74.7,59.9,47.8,56.2,47.4,41.7,87,65,40,29.87,29.76,13,4,16,0.14
2013-4-25,63.0,51.2,40.6,43.7,31.0,13.2,89,54,15,30.06,29.86,8,2,10,0.00
2013-4-26,71.8,53.7,35.2,40.4,32.5,26.5,83,49,19,30.13,29.98,8,2,10,0.00
2013-4-27,54.9,51.3,49.1,50.5,46.0,37.4,98,83,52,30.08,29.93,8,1,8,0.85
2013-4-28,53.1,50.9,49.5,52.5,49.8,46.9,99,96,89,29.94,29.71,14,3,16,1.28
2013-4-29,73.4,59.8,49.6,56.2,50.9,44.9,99,76,38,29.80,29.67,7,2,8,0.01
2013-4-30,78.3,62.9,50.0,58.5,51.4,45.5,99,71,33,29.89,29.74,13,3,14,0.00
2013-5-1,68.9,60.1,54.1,53.1,50.3,47.2,89,71,49,29.99,29.89,17,5,19,0.00
2013-5-2,67.6,58.0,53.8,55.1,51.1,48.1,91,78,61,30.00,29.94,14,5,14,0.00
2013-5-3,65.5,55.2,51.6,53.0,49.0,44.1,92,81,47,29.94,29.81,18,7,21,0.01
2013-5-4,51.6,48.9,46.4,49.1,45.1,38.0,97,87,68,29.81,29.69,22,8,24,0.41
2013-5-5,50.2,48.3,46.2,49.4,47.3,45.0,99,96,90,29.74,29.55,24,6,27,1.67
2013-5-6,66.6,55.6,48.7,50.4,44.2,34.5,99,71,32,29.65,29.53,17,4,18,0.12
2013-5-7,64.8,54.1,45.0,49.4,44.0,37.0,97,72,39,29.71,29.62,5,1,6,0.00
2013-5-8,64.0,56.3,50.2,55.8,51.7,47.9,99,85,66,29.83,29.69,4,0,7,0.07
2013-5-9,73.6,60.6,48.2,59.7,51.1,47.9,99,74,46,29.90,29.81,4,0,4,0.01
2013-5-10,75.2,61.1,51.1,59.8,54.3,49.1,94,80,42,29.88,29.71,10,1,10,0.32
2013-5-11,70.9,61.6,54.7,60.4,56.3,49.5,98,83,56,29.74,29.62,7,1,7,0.02
2013-5-12,57.6,52.5,46.2,49.3,38.6,28.1,87,62,38,29.83,29.69,6,3,8,0.00
2013-5-13,57.6,49.4,41.5,34.9,27.4,19.5,66,44,23,29.93,29.83,7,2,8,0.00
2013-5-14,76.1,57.9,37.0,47.2,39.1,27.7,85,53,29,30.00,29.82,7,1,7,0.00
2013-5-15,82.4,68.2,53.8,57.2,49.4,45.0,82,54,29,29.92,29.74,4,1,4,0.00
2013-5-16,73.0,64.4,53.1,57.0,52.5,48.6,88,67,43,29.86,29.74,3,0,3,0.00
2013-5-17,80.6,66.5,54.9,61.5,54.1,43.4,96,68,41,29.90,29.77,7,2,11,0.00
2013-5-18,71.2,64.6,58.5,63.3,57.9,47.0,98,80,49,29.86,29.80,8,2,9,0.14
2013-5-19,76.8,65.6,60.8,68.1,62.5,59.2,98,90,63,29.88,29.77,5,0,7,0.28
2013-5-20,79.5,68.7,59.9,65.5,61.5,59.6,99,80,52,29.89,29.75,4,0,4,0.00
2013-5-21,81.1,66.1,57.6,66.4,59.9,55.9,96,82,49,29.87,29.76,3,0,4,0.01
2013-5-22,85.6,66.6,58.6,67.1,60.6,56.9,96,83,42,29.79,29.64,16,1,18,1.10
2013-5-23,75.2,64.6,58.3,62.7,57.7,51.6,99,81,46,29.75,29.66,8,1,9,0.15
2013-5-24,60.6,56.2,50.2,53.8,44.1,34.9,89,66,42,30.00,29.74,8,2,8,0.01
2013-5-25,71.1,57.6,41.9,46.2,35.8,14.9,91,49,12,30.09,29.95,6,2,7,0.00
2013-5-26,67.1,57.0,48.2,52.5,45.0,38.4,93,66,39,30.05,29.95,7,1,7,0.04
2013-5-27,80.6,64.8,49.3,58.3,52.4,47.3,94,67,39,30.03,29.86,9,1,10,0.00
2013-5-28,82.4,68.5,58.3,60.9,54.6,48.4,87,64,34,29.99,29.87,8,2,9,0.00
2013-5-29,86.4,70.9,57.9,62.1,55.1,47.9,90,61,31,30.00,29.85,11,2,13,0.00
2013-5-30,78.8,65.7,56.3,61.7,55.4,53.2,93,71,43,30.05,29.87,9,2,11,0.00
2013-5-31,84.6,70.8,58.1,62.2,56.4,52.1,92,63,36,30.00,29.85,14,2,14,0.00
2013-6-1,87.4,73.5,62.2,62.7,58.1,51.9,88,62,30,29.90,29.75,11,3,14,0.05
2013-6-2,68.7,65.5,63.9,67.5,63.9,59.0,99,94,79,29.99,29.74,7,1,8,0.54
2013-6-3,71.8,66.4,61.7,65.5,61.1,57.6,98,84,62,30.00,29.89,5,1,5,0.00
2013-6-4,81.5,68.3,57.9,64.2,58.3,52.1,99,74,37,30.08,29.98,9,2,10,0.00
2013-6-5,82.9,70.2,61.2,66.0,61.8,58.8,95,76,49,30.10,29.92,14,3,16,0.27
2013-6-6,77.4,67.8,61.5,66.1,63.1,61.0,98,86,61,29.98,29.78,7,1,10,0.02
2013-6-7,75.0,68.0,63.0,67.5,64.1,59.9,99,88,65,29.87,29.72,4,1,4,0.21
2013-6-8,76.8,67.2,59.5,65.2,61.5,59.0,99,83,62,30.10,29.87,6,1,6,0.02
2013-6-9,80.6,67.0,60.1,69.2,63.4,59.1,99,89,55,30.17,30.01,18,1,18,0.54
2013-6-10,74.7,68.0,64.2,65.4,61.4,55.4,99,81,53,30.03,29.93,9,2,9,0.28
2013-6-11,76.8,70.8,62.2,65.4,60.9,58.6,98,72,55,30.05,29.97,6,2,6,0.19
2013-6-12,83.5,72.3,60.4,71.1,64.4,59.2,96,78,58,30.10,29.93,4,1,6,0.00
2013-6-13,88.3,72.2,64.8,68.1,64.0,8.9,94,78,10,29.97,29.74,97,2,97,0.54
2013-6-14,75.9,66.8,58.1,63.2,56.0,51.3,94,70,46,30.03,29.87,4,2,6,0.00
2013-6-18,75.4,67.4,64.0,68.1,63.6,59.6,99,88,67,29.99,29.85,6,2,11,0.04
2013-6-19,76.5,67.6,59.2,64.5,60.2,57.3,99,79,54,30.12,29.98,4,0,4,0.00
2013-6-20,79.9,68.9,58.6,64.6,60.2,57.3,97,75,52,30.23,30.11,9,1,10,0.00
2013-6-21,81.0,69.6,60.3,65.0,58.9,51.0,98,71,44,30.28,30.13,9,1,10,0.00
2013-6-22,80.1,68.3,56.5,63.4,55.8,47.3,97,68,40,30.29,30.11,4,1,5,0.00
2013-6-23,82.0,68.9,57.4,66.5,60.0,54.2,96,75,45,30.25,30.11,9,1,13,0.19
2013-6-24,84.0,71.6,64.2,70.7,65.5,60.1,99,83,48,30.24,30.07,4,1,8,0.06
2013-6-25,81.3,70.7,64.8,69.2,65.2,62.2,99,84,56,30.17,30.03,4,0,4,0.05
2013-6-26,81.5,70.1,63.1,72.3,66.3,62.3,99,88,67,30.10,29.92,4,0,6,0.38
2013-6-27,80.6,71.5,63.7,71.5,66.4,62.8,99,85,61,29.98,29.79,5,1,9,0.43
2013-6-28,83.8,71.9,63.1,70.9,64.2,57.7,99,79,46,29.86,29.67,4,1,8,0.01
2013-6-29,81.0,69.3,61.7,66.7,59.7,54.1,97,74,40,29.77,29.70,4,1,4,0.00
2013-6-30,83.8,68.2,56.1,65.1,59.4,52.9,98,77,37,29.85,29.74,10,1,13,0.13
2013-7-1,82.2,68.7,61.9,67.0,62.9,56.6,97,84,44,29.97,29.81,11,2,14,0.31
2013-7-2,81.9,70.6,63.1,69.6,62.7,57.7,99,78,51,30.10,29.95,8,2,13,0.12
2013-7-3,69.1,65.7,61.5,67.3,63.3,61.0,98,92,81,30.23,30.09,5,0,5,1.44
2013-7-4,70.7,65.3,61.3,68.6,64.3,60.8,99,97,89,30.22,29.66,4,1,7,0.78
2013-7-5,74.8,69.3,65.3,67.3,65.1,62.7,99,87,67,30.36,29.95,5,1,12,0.02
2013-7-6,78.8,70.5,64.9,70.6,65.5,62.7,99,85,62,30.29,30.15,11,1,12,0.26
2013-7-7,77.4,69.5,66.2,69.1,67.0,65.8,99,92,71,30.24,30.16,6,1,6,0.54
2013-7-8,81.3,71.8,66.0,71.0,66.5,63.5,99,85,56,30.28,30.17,3,0,4,0.00
2013-7-9,83.7,72.2,65.5,71.6,66.7,63.0,99,84,54,30.26,30.11,4,0,5,1.25
2013-7-10,82.8,70.5,65.5,73.3,67.4,64.7,99,91,62,30.21,30.03,7,1,7,1.31
2013-7-11,76.8,70.4,66.7,70.7,67.3,8.8,99,91,10,30.09,29.81,4,0,4,0.01
2013-7-12,78.6,71.1,64.6,68.5,64.8,60.4,99,82,60,29.92,29.81,8,1,8,0.06
2013-7-13,75.7,68.0,62.6,66.0,62.3,59.2,96,82,64,30.03,29.91,13,3,13,0.02
2013-7-14,72.5,69.0,67.1,68.8,65.8,63.3,98,89,80,30.20,30.01,15,2,15,0.18
2013-7-15,82.2,72.6,66.7,67.3,63.9,61.3,90,75,54,30.24,30.15,8,2,11,0.00
2013-7-16,84.9,73.7,64.0,70.2,66.2,62.6,99,79,52,30.27,30.14,5,0,5,0.00
2013-7-17,84.9,72.6,66.6,73.1,67.4,64.7,98,85,56,30.26,30.07,8,1,9,0.08
2013-7-18,87.1,72.4,65.3,70.6,66.6,64.2,98,84,53,30.16,29.43,15,1,17,1.72
2013-7-19,85.3,73.3,66.4,72.9,68.1,63.8,99,85,54,30.08,29.50,4,0,6,0.27
2013-7-20,81.3,71.1,66.6,73.0,67.1,64.8,96,88,61,29.79,29.65,0,0,0,0.00
2013-7-21,84.0,71.0,66.7,72.7,67.4,63.7,95,89,57,29.79,29.55,0,0,0,0.00
2013-7-22,73.8,67.9,66.2,69.8,66.0,63.5,95,94,86,29.93,29.71,0,0,0,0.00
2013-7-23,82.9,72.1,64.2,69.2,65.0,61.9,95,80,52,29.94,29.81,0,0,0,0.00
2013-7-24,80.4,71.7,64.6,69.4,65.0,61.1,95,80,60,29.91,29.81,0,0,0,0.00
2013-7-25,86.0,71.9,64.0,66.5,62.0,57.4,94,74,41,30.06,29.91,0,0,0,0.00
2013-7-26,87.1,71.2,60.3,67.7,60.6,56.9,95,72,38,30.13,29.99,0,0,0,0.00
2013-7-27,79.5,69.9,0.0,68.8,64.7,62.5,95,82,63,30.08,29.67,4,0,5,0.21
2013-7-28,78.6,69.6,64.6,67.7,64.1,60.5,97,83,67,29.98,29.68,4,0,5,0.00
2013-7-29,77.7,67.4,59.2,60.8,58.8,56.4,96,76,50,30.14,29.96,4,1,4,0.00
2013-7-30,78.4,66.6,56.3,63.7,59.8,55.1,97,80,56,30.15,29.89,2,0,2,0.00
2013-7-31,72.7,67.5,62.4,68.6,64.6,60.9,99,91,81,30.06,29.73,5,0,5,0.25
2013-8-1,76.1,69.5,65.1,70.1,65.6,62.7,99,88,75,29.94,29.70,8,1,8,0.06
2013-8-2,82.0,69.5,62.1,67.3,63.7,60.5,97,83,54,30.00,29.76,4,0,4,0.00
2013-8-3,79.9,69.8,63.1,67.4,64.0,61.6,97,83,58,30.00,29.76,4,0,4,0.00
2013-8-4,78.6,69.5,62.8,67.9,63.1,59.2,97,81,64,30.01,29.79,7,1,7,0.00
2013-8-5,84.0,69.1,59.7,66.8,60.4,56.4,96,76,42,30.01,29.74,4,0,4,0.00
2013-8-6,81.3,70.6,63.5,67.8,64.2,59.3,94,81,55,29.98,29.71,5,0,5,0.04
2013-8-7,75.9,70.1,66.7,69.2,66.6,64.7,95,89,76,29.99,29.77,9,1,11,0.56
2013-8-8,78.3,70.9,64.9,71.0,67.2,63.8,97,88,73,30.00,29.94,4,0,6,0.02
2013-8-9,85.3,72.5,66.6,71.3,67.0,64.8,94,84,55,30.05,29.97,4,0,6,0.12
2013-8-10,78.8,71.4,67.1,72.2,67.6,64.8,95,88,74,30.08,29.99,8,0,8,0.40
2013-8-11,79.3,71.3,67.6,70.2,66.2,64.2,94,84,66,30.11,29.45,2,0,3,0.61
2013-8-12,83.7,71.1,65.7,72.2,66.7,63.0,95,86,64,29.93,29.49,2,0,2,0.00
2013-8-13,80.2,71.8,66.7,70.4,67.2,64.3,98,86,61,29.96,29.80,0,0,0,0.00
2013-8-14,70.9,67.0,61.3,62.8,58.8,56.2,93,75,62,30.10,30.00,0,0,0,0.00
2013-8-15,73.6,64.9,59.7,61.8,57.4,53.9,90,77,59,30.15,30.06,0,0,0,0.00
2013-8-16,74.8,65.2,57.0,59.2,55.6,52.9,93,73,49,30.16,30.08,0,0,0,0.00
2013-8-17,70.3,64.3,60.1,61.9,57.7,54.3,91,80,61,30.19,30.11,0,0,0,0.00
2013-8-18,76.6,66.6,62.1,67.4,62.8,59.6,97,88,65,30.23,30.11,0,0,0,0.00
2013-8-19,73.4,66.1,63.1,67.2,64.4,62.3,99,94,78,30.19,29.60,0,0,0,0.15
2013-8-20,77.9,68.7,64.0,69.0,65.6,63.2,99,91,67,30.02,29.92,0,0,0,0.00
2013-8-21,74.1,68.7,64.8,68.8,65.9,63.0,99,91,77,30.04,29.93,0,0,0,0.00
2013-8-22,79.5,69.9,61.5,68.5,64.3,60.4,99,83,61,30.02,29.85,0,0,0,0.00
2013-8-23,79.5,69.1,63.1,68.3,63.9,61.9,98,85,56,29.92,29.81,0,0,0,0.00
2013-8-24,80.2,69.2,62.4,66.9,60.5,56.1,98,76,49,30.12,29.91,0,0,0,0.00
2013-8-25,77.4,65.9,55.2,60.7,56.4,53.7,98,73,50,30.21,30.06,0,0,0,0.00
2013-8-26,77.2,65.1,56.7,64.2,58.8,55.6,98,82,55,30.15,29.96,0,0,0,0.00
2013-8-27,78.4,65.8,0.0,66.8,61.3,55.5,99,85,63,30.00,29.88,0,0,0,0.00
2013-8-28,77.9,69.7,62.4,69.4,64.9,61.2,96,85,68,29.93,29.84,1,0,1,0.00
2013-8-29,80.1,72.5,65.5,70.3,67.0,63.4,95,83,70,29.87,29.81,0,0,0,0.00
2013-8-30,84.4,73.6,67.5,70.2,67.7,65.5,96,83,58,29.89,29.80,9,1,9,0.00
2013-8-31,82.4,71.2,65.5,69.4,66.8,63.1,97,86,62,29.84,29.74,4,0,6,0.00
2013-9-1,84.6,71.9,66.2,71.5,67.0,65.1,98,86,56,29.81,29.71,5,1,7,0.79
2013-9-2,78.8,69.1,64.6,69.5,66.4,63.9,98,91,68,29.81,29.72,1,0,4,0.00
2013-9-3,75.7,68.3,0.0,66.3,63.1,59.3,97,83,65,29.99,29.74,6,1,7,0.13
2013-9-4,79.9,67.7,60.8,66.2,62.1,59.1,95,83,59,30.08,29.98,4,0,4,0.00
2013-9-5,77.9,67.7,60.8,66.4,60.6,55.3,95,79,54,30.12,30.06,3,0,4,0.00
2013-9-6,79.7,65.6,53.4,63.2,57.3,51.2,96,77,50,30.13,30.03,1,0,4,0.00
2013-9-7,76.8,66.3,58.1,65.0,59.6,56.0,96,81,58,30.08,29.98,4,1,4,0.00
2013-9-8,76.3,64.4,58.3,64.6,59.3,56.0,94,84,61,30.00,29.94,2,0,4,0.00
2013-9-9,83.3,69.6,61.5,66.0,61.1,59.0,92,76,49,30.11,30.00,3,0,4,0.00
2013-9-10,83.5,70.4,61.7,64.9,61.1,59.2,92,74,51,30.20,30.11,6,1,8,0.00
2013-9-11,78.1,69.3,61.9,65.6,61.7,58.3,89,78,59,30.20,30.07,1,0,2,0.00
2013-9-12,74.1,67.9,62.6,65.2,62.2,58.0,90,82,67,30.09,29.89,4,0,5,0.25
2013-9-13,71.6,64.0,57.7,60.6,55.5,47.8,91,75,58,29.91,29.83,6,2,9,0.11
2013-9-14,72.1,59.0,48.0,55.3,50.1,43.9,89,73,51,30.03,29.88,8,0,8,0.00
2013-9-15,74.5,61.0,49.8,58.3,52.7,46.9,92,75,52,30.11,30.03,8,1,10,0.00
2013-9-16,73.4,62.4,52.5,61.8,54.7,49.7,93,77,55,30.11,30.05,2,0,3,0.00
2013-9-17,70.3,63.2,60.3,56.8,54.4,51.8,85,73,57,30.19,30.10,0,0,0,0.00
2013-9-18,66.4,61.4,57.4,55.8,52.6,48.8,83,73,66,30.15,30.08,0,0,0,0.00
2013-9-19,74.5,64.7,58.6,61.5,56.8,54.4,87,76,60,30.11,30.03,0,0,0,0.00
2013-9-20,77.9,66.4,59.0,61.4,58.0,54.7,86,75,55,30.05,29.88,6,0,6,0.00
2013-9-21,66.9,64.0,59.5,58.1,56.4,54.4,83,77,69,29.90,29.74,6,2,8,0.79
2013-9-22,67.5,59.6,53.1,54.4,50.2,46.9,83,72,56,29.87,29.74,4,1,6,0.01
2013-9-23,73.6,59.5,50.0,56.2,50.6,45.0,86,74,51,29.97,29.87,4,0,6,0.00
2013-9-24,74.8,62.3,53.1,57.6,53.1,48.4,85,73,54,30.00,29.86,3,0,4,0.00
2013-9-25,63.1,60.9,58.5,56.9,54.7,53.2,83,80,73,29.87,29.79,2,0,6,1.25
2013-9-26,66.4,60.5,55.8,59.0,53.3,49.7,85,77,66,29.98,29.82,1,0,2,0.05
2013-9-27,71.6,59.5,53.2,54.9,50.6,47.9,84,73,53,30.09,29.98,3,0,3,0.00
2013-9-28,70.7,59.3,50.4,53.9,49.9,45.4,85,72,53,30.15,30.04,5,0,7,0.00
2013-9-29,68.7,59.3,54.0,52.4,49.3,46.2,78,70,55,30.08,29.95,5,0,5,0.00
2013-9-30,71.6,61.1,54.1,53.8,51.2,48.4,82,71,46,30.01,29.93,5,0,6,0.00
2013-10-1,72.5,62.5,55.4,56.1,52.9,50.0,82,72,53,30.09,30.00,0,0,2,0.00
2013-10-2,72.3,61.9,55.4,58.6,53.0,50.3,85,74,53,30.12,30.03,0,0,0,0.00
2013-10-3,75.4,60.2,55.4,58.8,52.7,49.7,84,77,55,30.09,30.03,0,0,0,0.00
2013-10-4,61.5,61.5,61.5,54.6,54.6,54.6,78,78,78,30.08,30.08,0,0,0,0.00
2013-10-5,78.6,65.7,57.7,60.0,56.0,52.7,85,72,50,30.11,29.99,2,0,3,0.00
2013-10-6,78.8,65.2,54.9,60.6,54.3,50.0,86,69,47,30.01,29.83,4,0,4,0.00
2013-10-7,65.8,56.8,49.8,56.4,49.9,43.8,84,78,67,29.97,29.77,0,0,2,0.70
2013-10-8,68.2,54.8,45.9,50.4,45.2,41.6,86,71,50,30.09,29.96,0,0,2,0.00
2013-10-9,69.8,56.9,45.7,52.8,46.9,40.5,83,70,54,30.11,30.02,0,0,0,0.00
2013-10-10,65.3,55.9,48.7,53.4,47.0,44.7,86,73,54,30.05,29.97,2,0,4,0.00
2013-10-11,68.9,56.7,46.2,53.1,47.4,42.0,86,72,49,30.00,29.92,2,0,4,0.00
2013-10-12,69.8,58.6,48.9,54.0,49.7,44.5,85,73,56,30.04,29.95,0,0,2,0.00
2013-10-13,68.0,61.4,57.6,55.6,53.7,50.9,84,76,64,30.13,30.04,0,0,0,0.01
2013-10-14,61.3,60.9,60.6,54.4,54.1,53.6,79,78,77,30.12,30.11,0,0,0,0.00
2013-10-15,69.8,61.9,54.5,54.0,51.6,48.8,83,70,55,30.06,29.95,2,0,2,0.00
2013-10-16,66.9,59.5,52.3,53.7,50.3,46.0,82,72,59,29.98,29.88,2,0,2,0.01
2013-10-17,67.3,60.7,53.4,57.3,53.7,46.2,85,78,65,29.90,29.79,3,0,3,0.01
2013-10-18,65.7,55.5,49.5,47.4,44.5,41.3,79,67,49,29.93,29.84,0,0,2,0.00
2013-10-19,60.3,52.9,47.8,49.0,43.7,37.7,85,72,45,29.88,29.78,1,0,1,0.00
2013-10-20,62.6,49.6,38.5,40.8,36.1,24.4,81,62,24,29.96,29.86,4,0,4,0.00
2013-10-21,66.2,49.9,34.9,46.4,37.7,29.4,87,65,31,30.01,29.89,0,0,0,0.00
2013-10-22,63.3,54.8,49.3,47.9,44.0,41.3,79,67,52,29.92,29.74,0,0,0,0.00
2013-10-23,53.1,45.3,35.4,41.9,32.7,24.3,79,62,42,29.91,29.67,0,0,2,0.00
2013-10-24,48.9,39.6,30.9,33.9,29.2,23.8,78,66,54,30.01,29.90,0,0,2,0.00
2013-10-25,42.8,36.1,30.2,31.1,23.4,20.1,76,61,46,30.19,30.01,0,0,1,0.00
2013-10-26,56.8,40.6,24.8,31.6,23.7,17.1,75,54,26,30.15,29.94,0,0,0,0.00
2013-10-27,61.5,53.0,46.0,45.4,41.0,30.0,75,64,52,30.02,29.93,0,0,0,0.00
2013-10-28,58.8,52.0,46.0,49.5,44.9,40.9,86,77,64,30.14,30.00,1,0,2,0.01
2013-10-29,66.0,55.8,48.6,49.7,44.6,41.8,85,68,45,30.21,30.12,1,0,1,0.01
2013-10-30,71.4,59.9,51.3,52.2,47.2,42.6,75,64,48,30.17,30.07,0,0,0,0.00
2013-10-31,65.1,61.0,54.0,53.3,48.7,46.0,78,65,56,30.08,29.71,0,0,0,0.05
2013-11-1,73.9,63.2,53.4,55.3,48.1,35.1,83,60,27,29.74,29.60,0,0,0,0.06
2013-11-2,56.1,48.9,43.9,42.1,37.3,33.3,78,64,47,29.92,29.70,0,0,0,0.00
2013-11-3,53.4,45.5,37.4,37.1,33.0,29.5,76,62,42,30.17,29.91,0,0,0,0.00
2013-11-4,57.2,45.0,33.3,34.0,30.1,26.4,78,58,38,30.28,30.17,0,0,0,0.00
2013-11-5,62.2,47.8,36.7,36.0,28.8,20.3,76,51,25,30.31,30.21,0,0,0,0.00
2013-11-6,67.6,55.8,43.5,49.7,44.2,32.5,80,66,51,30.24,30.00,0,0,0,0.00
2013-11-7,55.2,48.7,37.2,49.9,39.4,25.8,85,70,61,30.05,29.91,11,2,11,0.05
2013-11-8,49.1,40.0,32.2,25.8,19.4,10.0,65,46,23,30.16,30.05,8,0,9,0.00
2013-11-9,58.3,41.9,26.8,30.1,22.1,15.7,73,49,22,30.14,30.05,2,0,2,0.00
2013-11-10,61.3,48.3,38.7,35.8,27.3,22.4,60,45,25,30.13,30.06,0,0,0,0.00
2013-11-11,63.5,45.7,29.3,30.9,21.6,14.2,70,42,17,30.15,30.01,5,0,5,0.00
2013-11-12,50.9,36.7,22.8,34.8,23.2,8.9,71,58,46,30.26,29.97,1,0,1,0.00
2013-11-13,41.5,28.8,18.5,14.4,10.9,4.7,68,49,25,30.33,30.23,0,0,1,0.00
2013-11-14,56.5,36.6,19.9,44.7,15.3,10.1,97,46,20,30.25,30.09,4,0,5,0.00
2013-11-15,49.8,42.5,29.3,44.6,33.1,14.1,89,71,42,30.13,30.01,4,0,4,0.27
2013-11-16,65.1,52.6,43.9,51.4,46.3,41.7,93,80,58,30.09,30.00,4,0,4,0.00
2013-11-17,65.3,59.0,53.2,56.2,51.3,46.2,88,76,62,30.05,29.80,2,0,3,0.52
2013-11-18,61.5,53.1,41.7,56.7,39.4,28.7,88,61,42,29.95,29.78,8,3,11,0.04
2013-11-19,51.1,41.9,34.2,29.7,23.2,14.8,64,49,24,30.04,29.94,10,1,13,0.00
2013-11-20,51.3,41.7,34.0,29.0,24.3,20.3,63,50,34,30.20,30.03,0,0,1,0.00
2013-11-21,57.9,47.7,39.7,46.9,39.3,28.9,87,73,63,30.25,30.16,2,0,2,0.00
2013-11-22,65.5,59.1,47.8,53.7,50.7,44.5,88,74,61,30.20,30.03,2,0,2,0.00
2013-11-23,54.7,43.6,29.3,49.0,35.5,16.8,85,73,51,30.08,30.00,1,0,1,0.00
2013-11-24,32.9,25.6,19.6,16.8,6.0,-0.9,65,44,26,30.25,30.07,0,0,1,0.00
2013-11-25,38.5,28.9,18.7,23.7,10.0,4.1,67,46,27,30.22,30.01,0,0,0,0.00
2013-11-26,43.2,40.3,32.5,40.5,37.0,22.1,92,88,64,30.02,29.56,8,0,8,2.16
2013-11-27,39.9,27.0,19.2,36.7,19.8,8.4,89,74,62,29.99,29.55,8,2,11,0.09
2013-11-28,42.4,27.9,15.4,24.8,16.2,7.2,74,62,43,30.23,29.99,4,1,7,0.12
2013-11-29,49.3,34.3,23.4,29.2,22.3,17.0,78,63,39,30.33,30.22,4,1,4,0.00
2013-11-30,48.6,36.7,27.7,27.7,22.0,16.8,70,56,41,30.33,30.12,8,2,8,0.00
2013-12-1,57.0,39.0,28.2,36.9,27.1,19.0,80,64,29,30.13,29.87,10,1,10,0.00
2013-12-2,52.0,41.8,32.4,39.4,33.5,26.0,83,73,61,29.87,29.67,4,0,4,0.00
2013-12-3,58.1,48.4,41.0,46.3,41.7,37.3,90,78,62,29.80,29.71,2,0,5,0.01
2013-12-4,67.1,53.9,43.5,50.9,45.2,40.5,91,74,48,29.93,29.79,2,0,3,0.00
2013-12-5,72.7,61.5,56.5,56.7,52.5,47.4,88,73,51,29.96,29.88,4,0,4,0.27
2013-12-6,70.7,62.6,50.7,58.4,53.8,45.7,89,74,56,29.96,29.82,1,0,1,0.83
2013-12-7,50.7,42.5,37.8,46.4,36.8,33.4,86,80,71,30.15,29.93,0,0,0,0.01
2013-12-8,48.4,42.5,38.3,45.3,38.5,34.8,90,86,82,30.12,29.94,0,0,0,0.58
2013-12-9,54.5,50.4,45.0,51.3,46.7,40.4,90,87,82,29.97,29.86,0,0,0,0.37
2013-12-10,45.1,37.1,25.7,41.2,30.3,16.3,89,77,62,30.12,29.77,0,0,0,0.60
2013-12-11,47.7,32.7,20.8,26.4,16.8,8.1,77,55,22,30.21,30.09,0,0,0,0.00
2013-12-12,35.6,29.0,23.7,17.5,8.8,-2.2,68,45,22,30.20,30.12,0,0,0,0.00
2013-12-13,48.0,39.9,21.9,22.1,17.0,11.1,63,40,24,30.14,30.00,0,0,0,0.00
2013-12-14,48.6,42.4,36.7,42.9,33.3,17.0,86,71,44,30.01,29.63,0,0,0,0.60
2013-12-15,49.1,34.4,26.1,41.2,26.7,18.9,83,73,63,29.95,29.62,0,0,0,0.01
2013-12-16,51.6,35.3,22.5,33.6,22.2,16.9,82,61,34,30.01,29.92,0,0,0,0.00
2013-12-17,55.2,41.3,28.9,33.9,24.7,16.4,74,54,32,29.98,29.81,0,0,0,0.00
2013-12-18,44.1,34.0,26.2,19.8,10.3,-0.7,74,40,21,30.08,29.51,0,0,0,0.00
2013-12-19,59.0,42.9,25.9,28.2,16.4,5.3,60,36,22,29.96,29.85,0,0,0,0.00
2013-12-20,62.8,52.2,43.5,45.5,27.8,9.7,71,41,23,29.90,29.81,0,0,0,0.00
2013-12-21,63.3,60.2,54.7,56.5,52.3,45.5,82,75,67,29.83,29.65,0,0,0,0.08
2013-12-22,63.3,57.3,52.7,56.4,52.4,48.9,89,84,78,29.97,29.63,0,0,0,2.21
2013-12-23,52.9,46.0,34.0,49.1,41.1,27.5,88,83,76,30.06,29.89,0,0,0,0.09
2013-12-24,63.3,32.1,19.2,30.5,15.6,8.4,74,55,17,30.18,29.63,3,0,3,3.37
2013-12-25,50.0,28.3,15.8,33.9,14.3,7.4,74,56,37,30.20,29.59,0,0,0,0.00
2013-12-26,45.0,30.5,18.5,26.8,17.4,5.4,73,59,26,30.16,29.86,0,0,0,0.00
2013-12-27,56.5,34.1,21.7,28.3,22.6,12.0,76,64,21,30.24,29.72,4,0,4,0.00
2013-12-28,49.6,39.6,27.0,44.4,31.1,14.2,96,73,42,30.21,29.39,1,0,1,4.98
2013-12-29,65.1,44.0,36.0,50.8,41.3,32.8,99,91,59,29.70,29.39,2,0,2,0.00
2013-12-30,65.1,40.0,33.6,54.8,35.4,28.3,92,84,62,29.70,29.44,1,0,1,0.02
2013-12-31,61.2,35.0,27.5,56.4,22.8,10.6,88,63,33,29.88,29.40,8,0,8,0.07
2014-1-1,50.9,34.9,24.6,31.0,19.1,12.3,77,55,25,29.87,29.56,7,0,7,0.00
2014-1-2,51.3,33.0,17.6,28.2,20.0,5.4,84,59,34,30.12,29.44,4,0,4,7.37